Time;durP1;ratioP1;P1;durP2;ratioP2;P2;SDS_P1;SDS_P2;PMS_P1;PMS_P2;Temp;Humidity;BMP_temperature;BMP_pressure;BME280_temperature;BME280_humidity;BME280_pressure;Samples;Min_cycle;Max_cycle;Signal;HPM_P1;HPM_P2
2022/04/27 00:02:01;;;;;;;3.38;2.83;;;;;;;10.99;54.66;98825.84;5007288;28;20033;-67
2022/04/27 00:04:27;;;;;;;4.20;2.85;;;;;;;10.96;54.79;98826.97;4987034;28;20045;-69
2022/04/27 00:06:52;;;;;;;4.43;2.72;;;;;;;10.95;55.02;98833.25;5006774;28;20053;-69
2022/04/27 00:09:17;;;;;;;3.25;2.63;;;;;;;10.92;55.17;98833.56;4958271;28;20095;-71
2022/04/27 00:11:41;;;;;;;4.13;3.28;;;;;;;10.92;55.02;98836.22;4998855;28;20404;-71
2022/04/27 00:14:06;;;;;;;4.15;3.17;;;;;;;10.90;55.24;98840.81;4967944;28;20136;-69
2022/04/27 00:16:31;;;;;;;6.50;3.58;;;;;;;10.86;55.68;98848.22;5000864;28;20037;-71
2022/04/27 00:18:56;;;;;;;6.82;3.17;;;;;;;10.85;55.76;98848.38;4971604;28;20452;-69
2022/04/27 00:21:21;;;;;;;10.02;3.53;;;;;;;10.83;56.01;98853.84;5002981;28;20586;-67
2022/04/27 00:23:45;;;;;;;4.70;2.90;;;;;;;10.81;55.99;98854.94;4996599;28;20052;-68
2022/04/27 00:26:10;;;;;;;7.13;4.13;;;;;;;10.77;55.91;98865.03;4977361;28;20488;-68
2022/04/27 00:28:35;;;;;;;8.63;4.65;;;;;;;10.74;56.40;98859.09;4995867;28;20157;-69
2022/04/27 00:31:00;;;;;;;6.85;3.90;;;;;;;10.70;56.63;98863.00;4996442;28;20037;-70
2022/04/27 00:33:25;;;;;;;9.32;4.15;;;;;;;10.64;56.81;98863.50;4963269;28;20156;-68
2022/04/27 00:35:51;;;;;;;7.25;4.45;;;;;;;10.59;56.87;98876.41;4997077;28;20124;-69
2022/04/27 00:38:15;;;;;;;5.93;4.13;;;;;;;10.52;57.32;98866.22;4978554;28;20086;-68
2022/04/27 00:40:40;;;;;;;7.30;4.38;;;;;;;10.45;57.58;98867.72;4979430;28;20053;-69
2022/04/27 00:43:05;;;;;;;8.23;4.45;;;;;;;10.44;57.75;98876.69;4979182;28;20041;-69
2022/04/27 00:45:30;;;;;;;9.15;4.53;;;;;;;10.43;58.00;98866.16;4962985;28;20104;-69
2022/04/27 00:47:54;;;;;;;9.63;4.80;;;;;;;10.41;58.02;98878.75;5012729;28;20117;-69
2022/04/27 00:50:19;;;;;;;8.98;4.80;;;;;;;10.39;58.35;98867.38;5018391;28;20377;-70
2022/04/27 00:52:44;;;;;;;11.85;4.93;;;;;;;10.37;58.22;98870.19;5036313;28;20070;-77
2022/04/27 00:55:10;;;;;;;7.88;4.68;;;;;;;10.37;58.48;98872.00;5018922;28;20040;-70
2022/04/27 00:57:39;;;;;;;8.55;5.53;;;;;;;10.35;58.37;98876.63;5018752;28;20044;-71
2022/04/27 01:00:05;;;;;;;10.45;4.78;;;;;;;10.33;58.66;98868.75;5015223;28;20045;-72
2022/04/27 01:02:30;;;;;;;9.90;5.03;;;;;;;10.31;58.70;98872.50;5016695;28;20106;-72
2022/04/27 01:04:55;;;;;;;12.90;5.70;;;;;;;10.26;58.65;98878.22;5016792;28;20053;-68
2022/04/27 01:07:20;;;;;;;9.65;5.30;;;;;;;10.25;59.07;98876.53;5015289;28;20513;-68
2022/04/27 01:09:44;;;;;;;7.93;4.82;;;;;;;10.23;58.68;98881.13;4999960;28;20041;-68
2022/04/27 01:12:10;;;;;;;9.95;4.63;;;;;;;10.22;59.06;98884.75;5017006;28;20045;-69
2022/04/27 01:14:45;;;;;;;7.33;4.20;;;;;;;10.22;58.88;98894.56;5016995;28;20483;-69
2022/04/27 01:17:11;;;;;;;6.32;4.30;;;;;;;10.15;59.18;98884.41;5019738;28;20049;-68
2022/04/27 01:19:36;;;;;;;7.15;4.00;;;;;;;10.14;59.50;98887.19;5016222;28;20519;-68
2022/04/27 01:22:02;;;;;;;6.25;3.78;;;;;;;10.10;59.70;98885.72;5016119;28;20053;-67
2022/04/27 01:24:30;;;;;;;5.78;3.67;;;;;;;10.06;59.91;98893.13;5010164;28;20036;-68
2022/04/27 01:26:55;;;;;;;7.40;4.57;;;;;;;10.05;60.22;98890.56;5026466;28;20041;-69
2022/04/27 01:29:24;;;;;;;5.50;4.25;;;;;;;10.03;59.87;98895.22;5019937;28;20044;-69
2022/04/27 01:31:50;;;;;;;9.95;4.60;;;;;;;9.96;60.41;98894.00;5027218;28;20431;-71
2022/04/27 01:34:15;;;;;;;10.52;5.30;;;;;;;9.93;60.09;98888.94;5025966;28;20028;-68
2022/04/27 01:36:40;;;;;;;6.55;4.60;;;;;;;9.87;60.86;98887.59;5037376;28;20123;-74
2022/04/27 01:39:06;;;;;;;7.72;4.88;;;;;;;9.88;60.73;98889.28;5018158;28;20134;-75
2022/04/27 01:41:31;;;;;;;7.28;4.45;;;;;;;9.84;61.39;98887.84;5001895;28;20811;-74
2022/04/27 01:43:57;;;;;;;9.80;4.82;;;;;;;9.83;61.03;98894.97;5002449;28;20464;-72
2022/04/27 01:46:22;;;;;;;11.38;4.85;;;;;;;9.84;61.31;98893.16;5021581;28;20063;-75
2022/04/27 01:48:47;;;;;;;7.97;5.00;;;;;;;9.86;61.34;98895.69;5006569;28;20071;-75
2022/04/27 01:51:13;;;;;;;8.77;4.35;;;;;;;9.86;61.85;98893.03;5019647;28;20442;-73
2022/04/27 01:56:21;;;;;;;10.45;5.13;;;;;;;9.94;61.45;98882.59;5024772;28;20501;-75
2022/04/27 01:58:50;;;;;;;6.22;3.80;;;;;;;9.96;61.14;98888.66;5019064;28;20116;-74
2022/04/27 02:01:16;;;;;;;5.75;3.53;;;;;;;9.97;60.77;98891.22;5018476;28;20044;-72
2022/04/27 02:03:41;;;;;;;6.90;4.05;;;;;;;9.97;60.94;98901.00;5034011;28;20486;-71
2022/04/27 02:06:10;;;;;;;6.40;3.88;;;;;;;9.94;61.05;98898.59;5001163;28;20040;-71
2022/04/27 02:08:35;;;;;;;9.63;4.45;;;;;;;9.89;60.59;98901.63;5017611;28;20561;-69
2022/04/27 02:11:00;;;;;;;7.47;4.50;;;;;;;9.86;61.50;98896.56;4984182;28;20676;-68
2022/04/27 02:13:26;;;;;;;6.35;4.10;;;;;;;9.81;61.47;98901.41;5034788;28;20090;-70
2022/04/27 02:15:54;;;;;;;6.93;4.68;;;;;;;9.80;61.61;98899.72;5016983;28;20043;-69
2022/04/27 02:18:28;;;;;;;10.07;5.30;;;;;;;9.75;61.62;98897.41;5016727;28;20106;-68
2022/04/27 02:20:53;;;;;;;9.90;4.75;;;;;;;9.73;61.22;98891.38;4983927;28;20040;-67
2022/04/27 02:23:20;;;;;;;12.43;4.70;;;;;;;9.67;62.12;98899.84;5016692;28;20044;-64
2022/04/27 02:25:47;;;;;;;8.10;4.60;;;;;;;9.63;61.90;98905.53;5017133;28;20159;-65
2022/04/27 02:28:12;;;;;;;7.70;4.65;;;;;;;9.58;61.98;98905.06;5035124;28;20696;-74
2022/04/27 02:30:37;;;;;;;10.52;4.90;;;;;;;9.53;62.25;98908.06;5010233;28;20574;-76
2022/04/27 02:33:03;;;;;;;9.40;5.20;;;;;;;9.45;62.75;98907.84;4985328;28;20499;-75
2022/04/27 02:35:28;;;;;;;12.50;5.93;;;;;;;9.40;62.88;98920.63;5036681;28;20492;-78
2022/04/27 02:37:53;;;;;;;9.23;5.18;;;;;;;9.32;63.55;98925.72;5036153;28;20051;-75
2022/04/27 02:40:18;;;;;;;11.10;4.80;;;;;;;9.27;63.56;98914.56;5033530;28;20045;-75
2022/04/27 02:42:43;;;;;;;6.68;5.05;;;;;;;9.27;63.20;98923.41;5033928;28;20044;-76
2022/04/27 02:45:11;;;;;;;10.45;4.82;;;;;;;9.27;63.24;98925.22;5017780;28;20044;-75
2022/04/27 02:47:36;;;;;;;6.93;4.45;;;;;;;9.31;63.28;98927.53;5019400;28;20415;-78
2022/04/27 02:52:56;;;;;;;7.93;4.78;;;;;;;9.34;63.28;98929.97;5035756;28;20403;-76
2022/04/27 02:55:33;;;;;;;8.93;4.53;;;;;;;9.39;62.76;98938.41;5018653;28;20036;-68
2022/04/27 02:57:57;;;;;;;9.50;4.18;;;;;;;9.41;63.28;98925.84;5032874;28;20055;-67
2022/04/27 03:00:26;;;;;;;7.00;4.50;;;;;;;9.42;62.81;98922.22;5032361;28;20530;-67
2022/04/27 03:02:53;;;;;;;10.50;4.47;;;;;;;9.45;63.16;98921.13;5001018;28;20044;-67
2022/04/27 03:05:21;;;;;;;6.47;4.47;;;;;;;9.48;63.07;98926.19;5037700;28;20052;-67
2022/04/27 03:07:45;;;;;;;10.27;4.75;;;;;;;9.51;63.01;98925.97;5039236;28;20055;-68
2022/04/27 03:10:10;;;;;;;8.88;4.82;;;;;;;9.55;62.93;98919.44;5038812;28;20044;-68
2022/04/27 03:12:35;;;;;;;10.75;4.82;;;;;;;9.55;62.67;98926.59;5020503;28;20113;-65
2022/04/27 03:15:01;;;;;;;10.52;4.85;;;;;;;9.51;63.05;98922.44;5003886;28;20134;-65
2022/04/27 03:17:27;;;;;;;8.68;4.93;;;;;;;9.46;63.01;98931.66;5021082;28;20097;-65
2022/04/27 03:19:53;;;;;;;8.27;5.28;;;;;;;9.46;63.19;98936.13;5036820;28;20113;-64
2022/04/27 03:22:18;;;;;;;9.23;4.90;;;;;;;9.48;63.33;98931.50;5003854;28;20044;-64
2022/04/27 03:24:43;;;;;;;11.38;5.65;;;;;;;9.53;63.43;98940.00;5021385;28;20624;-64
2022/04/27 03:27:20;;;;;;;10.77;4.72;;;;;;;9.60;63.07;98943.84;5021204;28;20040;-64
2022/04/27 03:29:47;;;;;;;11.85;5.22;;;;;;;9.61;63.22;98937.56;5020299;28;20131;-65
2022/04/27 03:32:12;;;;;;;9.80;5.55;;;;;;;9.64;63.41;98937.34;5019955;28;20115;-65
2022/04/27 03:34:40;;;;;;;9.23;4.72;;;;;;;9.66;63.18;98938.06;5010854;28;20040;-66
2022/04/27 03:37:07;;;;;;;8.43;5.00;;;;;;;9.72;62.99;98940.25;5006844;28;20384;-66
2022/04/27 03:39:33;;;;;;;9.98;4.65;;;;;;;9.76;62.65;98947.03;5000150;28;20453;-63
2022/04/27 03:41:58;;;;;;;7.88;4.80;;;;;;;9.82;62.83;98943.00;4998694;28;20041;-64
2022/04/27 03:44:24;;;;;;;9.85;5.65;;;;;;;9.87;62.52;98943.50;4983030;28;20049;-65
2022/04/27 03:46:49;;;;;;;10.68;5.47;;;;;;;9.98;62.46;98955.97;5017501;28;20056;-65
2022/04/27 03:49:13;;;;;;;14.10;5.13;;;;;;;10.09;62.01;98955.94;4982524;28;20056;-66
2022/04/27 03:51:38;;;;;;;8.02;4.80;;;;;;;10.02;61.69;98955.59;4999325;28;20045;-65
2022/04/27 03:54:04;;;;;;;9.77;4.82;;;;;;;9.98;61.87;98953.31;4999337;28;20045;-66
2022/04/27 03:56:29;;;;;;;8.68;4.70;;;;;;;10.04;61.85;98952.81;4982515;28;20179;-66
2022/04/27 03:58:55;;;;;;;7.63;4.75;;;;;;;10.14;61.96;98957.28;4999024;28;20045;-65
2022/04/27 04:01:21;;;;;;;11.25;5.05;;;;;;;10.36;61.58;98956.41;4999540;28;20247;-66
2022/04/27 04:03:46;;;;;;;7.20;4.72;;;;;;;10.62;60.99;98959.59;4982841;28;20102;-65
2022/04/27 04:06:10;;;;;;;10.77;4.40;;;;;;;10.93;60.33;98959.72;4982877;28;20076;-65
2022/04/27 04:08:42;;;;;;;10.63;5.13;;;;;;;11.32;59.68;98952.84;4982621;28;20072;-65
2022/04/27 04:11:09;;;;;;;13.20;5.25;;;;;;;11.75;58.45;98956.19;4983237;28;20047;-66
2022/04/27 04:13:52;;;;;;;6.97;4.75;;;;;;;12.19;57.17;98951.44;5001473;28;20040;-65
2022/04/27 04:16:27;;;;;;;8.93;4.20;;;;;;;12.52;56.04;98959.13;4999215;28;20151;-66
2022/04/27 04:19:11;;;;;;;4.72;3.60;;;;;;;12.88;54.50;98943.34;5017259;28;20045;-66
2022/04/27 04:21:55;;;;;;;3.65;3.05;;;;;;;13.13;53.48;98953.47;4998853;28;20415;-65
2022/04/27 04:24:38;;;;;;;6.43;4.72;;;;;;;13.40;53.15;98945.59;5016287;28;20412;-66
2022/04/27 04:29:47;;;;;;;4.22;3.03;;;;;;;14.02;51.75;98953.97;5017523;28;20044;-66
2022/04/27 04:32:12;;;;;;;5.82;3.67;;;;;;;14.28;50.66;98956.81;5015649;28;20049;-65
2022/04/27 04:34:57;;;;;;;4.45;3.15;;;;;;;14.49;50.15;98958.25;4999066;28;20104;-66
2022/04/27 04:37:22;;;;;;;5.88;3.50;;;;;;;14.72;49.49;98963.19;4965722;28;20423;-66
2022/04/27 04:39:49;;;;;;;3.67;3.25;;;;;;;14.99;47.91;98954.22;4984513;28;20071;-66
2022/04/27 04:42:15;;;;;;;7.32;3.45;;;;;;;15.24;47.16;98956.09;5004319;28;20044;-66
2022/04/27 04:44:41;;;;;;;6.00;3.03;;;;;;;15.40;46.39;98944.63;4982197;28;20049;-67
2022/04/27 04:47:13;;;;;;;5.32;3.67;;;;;;;15.51;46.04;98955.13;4983539;28;20152;-65
2022/04/27 04:50:12;;;;;;;5.95;3.45;;;;;;;15.54;45.51;98944.94;4996706;28;20049;-67
2022/04/27 04:53:06;;;;;;;3.83;2.80;;;;;;;15.56;45.14;98944.78;4959793;28;20534;-66
2022/04/27 04:55:52;;;;;;;6.18;3.60;;;;;;;15.68;44.91;98945.38;4959020;28;20052;-65
2022/04/27 04:58:37;;;;;;;3.25;2.58;;;;;;;15.71;44.09;98950.41;4960059;28;20533;-67
2022/04/27 05:01:22;;;;;;;5.28;3.17;;;;;;;15.69;44.41;98945.19;4978696;28;20120;-67
2022/04/27 05:04:07;;;;;;;;;;;;;;;15.84;45.88;98953.50;4918958;28;20053;-68
2022/04/27 05:06:50;;;;;;;5.95;3.13;;;;;;;15.68;44.61;98962.34;4918644;29;20408;-67
2022/04/27 05:09:41;;;;;;;7.20;3.53;;;;;;;15.55;44.21;98959.22;4846212;29;20064;-68
2022/04/27 05:12:25;;;;;;;6.82;3.55;;;;;;;15.45;44.18;98963.81;4861558;29;20057;-67
2022/04/27 05:14:56;;;;;;;7.28;2.60;;;;;;;15.63;44.38;98961.97;4845318;29;20052;-67
2022/04/27 05:17:36;;;;;;;3.47;2.88;;;;;;;15.95;43.19;98964.00;4847043;29;20512;-67
2022/04/27 05:20:33;;;;;;;6.55;3.00;;;;;;;16.06;42.78;98966.41;4830705;29;20061;-68
2022/04/27 05:23:08;;;;;;;5.72;3.20;;;;;;;16.04;42.46;98964.88;4836288;29;20054;-66
2022/04/27 05:25:42;;;;;;;5.60;3.40;;;;;;;16.17;42.62;98965.25;4827927;29;20864;-67
2022/04/27 05:28:17;;;;;;;;;;;;;;;16.48;43.08;98973.66;4791833;29;20493;-66
2022/04/27 05:34:00;;;;;;;4.78;2.65;;;;;;;16.22;41.38;98962.94;4786929;29;20500;-67
2022/04/27 05:36:51;;;;;;;6.93;2.65;;;;;;;15.98;41.61;98971.75;4787603;29;20119;-66
2022/04/27 05:39:36;;;;;;;4.45;2.85;;;;;;;15.85;41.63;98974.00;4786451;29;20549;-66
2022/04/27 05:42:08;;;;;;;5.38;3.58;;;;;;;15.78;42.18;98972.97;4818181;29;20060;-66
2022/04/27 05:44:59;;;;;;;4.47;3.13;;;;;;;15.87;41.48;98970.19;4822067;29;20053;-66
2022/04/27 05:47:59;;;;;;;3.67;3.25;;;;;;;16.15;41.77;98981.56;4796569;29;20068;-66
2022/04/27 05:51:01;;;;;;;7.03;4.20;;;;;;;16.32;40.58;98979.78;4823970;29;20141;-66
2022/04/27 05:53:47;;;;;;;5.95;3.80;;;;;;;16.81;40.05;98980.81;4822888;29;20513;-66
2022/04/27 05:56:31;;;;;;;6.85;3.17;;;;;;;17.79;37.91;98981.69;4850912;29;20056;-65
2022/04/27 05:59:02;;;;;;;8.35;3.70;;;;;;;18.77;36.42;98993.81;4866397;29;20083;-64
2022/04/27 06:01:47;;;;;;;5.60;3.78;;;;;;;19.50;34.89;98989.78;4868239;29;20056;-64
2022/04/27 06:04:12;;;;;;;5.40;3.58;;;;;;;20.07;34.30;98981.13;4860125;29;20048;-63
2022/04/27 06:06:42;;;;;;;6.18;3.13;;;;;;;20.64;33.10;98979.41;4859352;29;20060;-66
2022/04/27 06:09:09;;;;;;;6.10;3.38;;;;;;;20.86;31.93;98979.47;4844122;29;20052;-67
2022/04/27 06:12:03;;;;;;;3.50;2.97;;;;;;;21.02;31.63;98984.63;4857528;29;20091;-67
2022/04/27 06:14:40;;;;;;;5.18;3.28;;;;;;;21.41;30.96;98991.50;4842167;29;20048;-67
2022/04/27 06:17:09;;;;;;;4.55;3.30;;;;;;;21.95;30.50;98995.28;4858938;29;20425;-67
2022/04/27 06:19:36;;;;;;;5.55;3.55;;;;;;;22.17;29.59;98997.97;4858146;29;20052;-65
2022/04/27 06:22:03;;;;;;;3.78;2.95;;;;;;;22.37;29.55;99001.63;4895812;28;20511;-65
2022/04/27 06:24:31;;;;;;;4.10;3.10;;;;;;;22.84;29.10;99005.44;4984628;28;20095;-67
2022/04/27 06:27:12;;;;;;;3.58;3.20;;;;;;;23.57;28.29;99009.19;5000270;28;20044;-66
2022/04/27 06:29:37;;;;;;;6.60;3.33;;;;;;;24.33;26.97;99007.69;5017039;28;20127;-66
2022/04/27 06:32:03;;;;;;;5.40;3.20;;;;;;;24.83;26.21;99013.41;5016442;28;20131;-66
2022/04/27 06:34:28;;;;;;;5.38;3.05;;;;;;;24.76;25.87;99024.31;5000301;28;20560;-67
2022/04/27 06:36:52;;;;;;;7.90;3.58;;;;;;;24.60;26.10;99024.81;5037700;28;20495;-67
2022/04/27 06:39:30;;;;;;;4.60;3.13;;;;;;;24.79;26.28;99021.16;5020104;28;20033;-67
2022/04/27 06:41:55;;;;;;;4.00;3.20;;;;;;;24.84;25.77;99024.06;5038533;28;20070;-65
2022/04/27 06:44:20;;;;;;;3.75;3.20;;;;;;;24.95;25.39;99028.03;5020001;28;20041;-65
2022/04/27 06:47:07;;;;;;;7.18;3.90;;;;;;;25.43;24.65;99030.28;5023776;28;20093;-68
2022/04/27 06:49:50;;;;;;;11.82;3.60;;;;;;;26.02;23.99;99025.22;5040718;28;20052;-66
2022/04/27 06:52:41;;;;;;;11.27;4.10;;;;;;;26.77;23.29;99023.19;5018159;28;20049;-66
2022/04/27 06:55:27;;;;;;;5.43;3.08;;;;;;;27.62;21.70;99028.63;5002771;28;20049;-67
2022/04/27 06:58:11;;;;;;;5.90;4.00;;;;;;;28.55;21.33;99022.38;5029375;28;20047;-66
2022/04/27 07:00:37;;;;;;;5.32;3.60;;;;;;;28.83;20.26;99019.72;5020390;28;20044;-65
2022/04/27 07:03:07;;;;;;;4.75;3.47;;;;;;;28.97;20.21;99017.53;5036470;28;20091;-67
2022/04/27 07:05:31;;;;;;;3.88;3.47;;;;;;;29.34;20.26;99022.66;4987135;28;20064;-65
2022/04/27 07:07:58;;;;;;;7.45;3.88;;;;;;;29.70;19.84;99037.88;5025372;28;20048;-66
2022/04/27 07:10:23;;;;;;;8.38;4.13;;;;;;;30.20;19.24;99030.50;5027978;28;20028;-66
2022/04/27 07:12:48;;;;;;;6.47;3.58;;;;;;;31.07;18.20;99032.53;5002652;28;20063;-66
2022/04/27 07:15:13;;;;;;;4.18;3.47;;;;;;;31.05;17.90;99037.47;5036943;28;20502;-66
2022/04/27 07:17:37;;;;;;;4.82;3.38;;;;;;;31.50;17.70;99030.81;5036451;28;20041;-65
2022/04/27 07:20:03;;;;;;;6.07;3.28;;;;;;;32.37;16.73;99036.03;5035613;28;20042;-66
2022/04/27 07:22:28;;;;;;;6.78;3.50;;;;;;;33.25;16.54;99034.31;5037803;28;20040;-66
2022/04/27 07:24:53;;;;;;;3.78;3.45;;;;;;;33.69;16.08;99031.06;5032009;28;20051;-67
2022/04/27 07:27:18;;;;;;;4.38;3.63;;;;;;;33.38;15.69;99039.31;5000310;28;20190;-67
2022/04/27 07:29:43;;;;;;;4.63;3.70;;;;;;;33.39;16.09;99049.28;5037696;28;20127;-66
2022/04/27 07:32:08;;;;;;;4.60;3.90;;;;;;;32.71;16.51;99045.66;5037756;28;20056;-66
2022/04/27 07:34:33;;;;;;;10.10;3.75;;;;;;;31.16;17.90;99039.28;5003456;28;20031;-75
2022/04/27 07:36:58;;;;;;;8.13;3.75;;;;;;;29.29;18.70;99045.34;5038999;28;20131;-76
2022/04/27 07:39:23;;;;;;;4.25;3.85;;;;;;;27.36;20.28;99031.72;5038945;28;20041;-74
2022/04/27 07:41:47;;;;;;;5.38;3.80;;;;;;;25.81;21.92;99028.38;5018440;28;20049;-75
2022/04/27 07:44:12;;;;;;;5.05;3.78;;;;;;;24.06;22.70;99038.69;5002506;28;20037;-79
2022/04/27 07:46:37;;;;;;;5.90;3.58;;;;;;;22.59;24.46;99037.69;5005752;28;20055;-76
2022/04/27 07:49:02;;;;;;;4.30;3.70;;;;;;;22.41;25.01;99030.91;4989753;28;20053;-65
2022/04/27 07:51:27;;;;;;;6.78;3.45;;;;;;;22.87;24.46;99034.94;4989867;28;20501;-65
2022/04/27 07:53:51;;;;;;;6.45;3.05;;;;;;;22.67;24.79;99023.94;5001136;28;20041;-65
2022/04/27 07:56:16;;;;;;;5.05;3.28;;;;;;;22.12;25.35;99028.44;5001332;28;20044;-65
2022/04/27 07:58:41;;;;;;;4.13;3.38;;;;;;;21.40;25.79;99030.50;5001480;28;20250;-67
2022/04/27 08:01:05;;;;;;;6.07;3.53;;;;;;;20.80;27.19;99027.09;4996840;28;20467;-68
2022/04/27 08:03:30;;;;;;;5.30;3.42;;;;;;;20.42;27.85;99023.72;4964997;28;20042;-67
2022/04/27 08:05:55;;;;;;;10.70;4.00;;;;;;;20.01;28.90;99036.78;4967864;28;20072;-66
2022/04/27 08:08:21;;;;;;;10.70;3.58;;;;;;;19.52;28.93;99022.91;4995949;28;20041;-68
2022/04/27 08:10:46;;;;;;;5.93;3.42;;;;;;;20.43;28.42;99028.06;4997967;28;20060;-67
2022/04/27 08:13:10;;;;;;;3.65;3.22;;;;;;;21.32;26.88;99021.47;4982035;28;20046;-68
2022/04/27 08:15:35;;;;;;;10.55;4.53;;;;;;;21.54;27.22;99026.91;4997641;28;20613;-75
2022/04/27 08:18:03;;;;;;;6.07;3.80;;;;;;;21.56;27.01;99024.81;4997644;28;20072;-76
2022/04/27 08:23:22;;;;;;;10.88;3.60;;;;;;;22.76;25.68;99031.75;4979033;28;20033;-75
2022/04/27 08:25:48;;;;;;;3.42;2.85;;;;;;;23.58;24.40;99035.34;4978737;28;20496;-67
2022/04/27 08:28:14;;;;;;;5.47;3.90;;;;;;;24.52;23.82;99025.84;5011804;28;20036;-65
2022/04/27 08:30:42;;;;;;;7.32;3.53;;;;;;;25.23;22.64;99025.78;5009082;28;20072;-66
2022/04/27 08:33:08;;;;;;;5.07;2.92;;;;;;;25.03;22.33;99025.06;5008633;28;20066;-65
2022/04/27 08:35:33;;;;;;;3.20;2.45;;;;;;;24.35;23.24;99029.28;5000679;28;20045;-68
2022/04/27 08:38:03;;;;;;;4.38;3.20;;;;;;;23.52;23.02;99026.97;5017760;28;20045;-67
2022/04/27 08:40:28;;;;;;;6.93;4.00;;;;;;;22.57;24.24;99028.91;5016406;28;20041;-66
2022/04/27 08:42:54;;;;;;;6.38;3.58;;;;;;;21.76;25.29;99025.00;5016459;28;20116;-66
2022/04/27 08:45:19;;;;;;;8.25;3.60;;;;;;;20.85;25.99;99019.25;5015097;28;20045;-67
2022/04/27 08:47:46;;;;;;;11.75;3.40;;;;;;;19.96;27.38;99022.16;5003436;28;20878;-66
2022/04/27 08:50:13;;;;;;;4.90;3.15;;;;;;;19.18;28.51;99031.41;5016706;28;20051;-66
2022/04/27 08:52:39;;;;;;;7.90;3.47;;;;;;;18.54;29.82;99027.16;5016330;28;20044;-67
2022/04/27 08:55:04;;;;;;;5.15;3.40;;;;;;;17.95;31.44;99029.34;5021834;28;20105;-66
2022/04/27 08:57:29;;;;;;;16.20;4.30;;;;;;;17.25;33.21;99040.66;5015148;28;20098;-65
2022/04/27 08:59:54;;;;;;;7.57;3.72;;;;;;;16.56;34.89;99047.16;4979672;28;20132;-66
2022/04/27 09:02:26;;;;;;;12.05;3.38;;;;;;;16.04;37.43;99058.97;4998352;28;20119;-67
2022/04/27 09:05:09;;;;;;;5.30;3.45;;;;;;;15.73;37.36;99062.13;5000490;28;20040;-67
2022/04/27 09:07:42;;;;;;;5.38;3.22;;;;;;;15.41;37.07;99062.66;5022061;28;20094;-66
2022/04/27 09:10:10;;;;;;;6.10;3.40;;;;;;;15.23;36.80;99059.16;4997646;28;20048;-66
2022/04/27 09:12:46;;;;;;;6.18;3.10;;;;;;;15.09;37.48;99067.72;5016005;28;20088;-67
2022/04/27 09:15:12;;;;;;;5.05;3.97;;;;;;;15.07;37.26;99069.72;4998077;28;20865;-67
2022/04/27 09:23:16;;;;;;;4.82;3.30;;;;;;;14.90;38.73;99072.22;5016145;28;20135;-67
2022/04/27 09:25:41;;;;;;;6.10;3.30;;;;;;;15.00;38.46;99065.97;5031244;28;20131;-68
2022/04/27 09:28:06;;;;;;;7.50;3.58;;;;;;;15.02;38.73;99069.31;5035440;28;20182;-67
2022/04/27 09:30:32;;;;;;;11.00;3.60;;;;;;;15.00;38.61;99068.66;5015438;28;20055;-67
2022/04/27 09:32:58;;;;;;;8.02;3.67;;;;;;;15.01;39.17;99063.09;5015622;28;20119;-67
2022/04/27 09:35:32;;;;;;;8.13;3.35;;;;;;;15.08;39.25;99076.78;4993679;28;20060;-68
2022/04/27 09:38:10;;;;;;;;;;;;;;;15.29;38.09;99082.69;5023291;28;20048;-68
2022/04/27 09:40:44;;;;;;;3.97;3.08;;;;;;;15.42;38.97;99076.94;5015617;28;19920;-68
2022/04/27 09:43:09;;;;;;;7.63;4.43;;;;;;;15.53;38.12;99077.56;4980441;28;20033;-68
2022/04/27 09:45:34;;;;;;;5.90;3.72;;;;;;;15.66;38.60;99073.66;5029866;28;20143;-66
2022/04/27 09:48:04;;;;;;;8.15;4.85;;;;;;;15.76;37.78;99074.41;5017452;28;20531;-69
2022/04/27 09:50:46;;;;;;;8.10;4.57;;;;;;;15.81;39.18;99078.31;5007319;28;20049;-67
2022/04/27 09:53:11;;;;;;;5.38;3.75;;;;;;;15.61;38.46;99071.44;5003320;28;20041;-66
2022/04/27 09:55:38;;;;;;;7.07;3.47;;;;;;;15.39;38.40;99086.16;4997277;28;20053;-68
2022/04/27 09:58:04;;;;;;;7.93;4.18;;;;;;;15.36;39.39;99090.97;4978859;28;20056;-68
2022/04/27 10:00:30;;;;;;;6.38;4.35;;;;;;;15.29;39.78;99093.44;4979178;28;20111;-68
2022/04/27 10:02:57;;;;;;;6.25;3.45;;;;;;;15.23;39.75;99094.06;4993374;28;20039;-69
2022/04/27 10:05:22;;;;;;;5.88;3.38;;;;;;;15.20;39.62;99095.22;4997924;28;20106;-68
2022/04/27 10:07:49;;;;;;;5.55;3.60;;;;;;;15.08;39.67;99084.84;4976890;28;20076;-69
2022/04/27 10:10:16;;;;;;;5.55;3.47;;;;;;;14.82;40.46;99093.59;4996023;28;20079;-68
2022/04/27 10:12:42;;;;;;;5.32;3.22;;;;;;;14.50;41.68;99095.88;4995246;28;20077;-68
2022/04/27 10:15:07;;;;;;;3.90;2.72;;;;;;;14.25;43.12;99099.19;4993918;28;20412;-67
2022/04/27 10:17:33;;;;;;;6.30;2.50;;;;;;;14.12;43.41;99107.53;4989153;28;20400;-67
2022/04/27 10:19:58;;;;;;;6.20;2.53;;;;;;;14.05;43.45;99106.44;5018869;28;20056;-68
2022/04/27 10:22:25;;;;;;;7.10;3.55;;;;;;;14.21;42.85;99103.16;4969153;28;20034;-69
2022/04/27 10:24:50;;;;;;;4.65;3.65;;;;;;;14.40;41.84;99108.50;4996484;28;20056;-68
2022/04/27 10:27:20;;;;;;;5.82;2.88;;;;;;;14.88;41.74;99108.28;5004045;28;20037;-68
2022/04/27 10:29:57;;;;;;;4.30;2.55;;;;;;;15.51;40.32;99103.72;5006175;28;20384;-71
2022/04/27 10:32:43;;;;;;;5.32;3.05;;;;;;;16.56;37.76;99100.13;5016168;28;20134;-69
2022/04/27 10:35:31;;;;;;;5.40;3.20;;;;;;;17.24;34.83;99102.75;5003588;28;20528;-67
2022/04/27 10:38:02;;;;;;;6.30;2.90;;;;;;;17.83;34.02;99107.09;4976700;28;20041;-69
2022/04/27 10:40:39;;;;;;;4.88;2.42;;;;;;;18.44;33.56;99103.78;4996506;28;20454;-69
2022/04/27 10:43:07;;;;;;;2.70;2.50;;;;;;;18.72;31.83;99108.78;5003805;28;20498;-69
2022/04/27 10:45:33;;;;;;;3.42;2.55;;;;;;;18.76;31.74;99108.25;4993916;28;20053;-66
2022/04/27 10:47:58;;;;;;;1.75;1.65;;;;;;;18.71;31.03;99107.09;4999672;28;20049;-71
2022/04/27 10:50:28;;;;;;;7.43;2.58;;;;;;;18.76;31.27;99107.41;5018287;28;20037;-67
2022/04/27 10:52:55;;;;;;;6.82;3.15;;;;;;;18.69;30.95;99103.75;4985829;28;20454;-68
2022/04/27 10:55:35;;;;;;;4.05;2.47;;;;;;;18.83;30.98;99111.13;5016247;28;20466;-69
2022/04/27 10:58:31;;;;;;;5.18;2.45;;;;;;;19.00;31.23;99101.91;5016318;28;20044;-68
2022/04/27 11:01:02;;;;;;;4.63;2.92;;;;;;;18.43;30.67;99098.53;4997598;28;20098;-67
2022/04/27 11:03:38;;;;;;;4.75;2.53;;;;;;;17.90;32.30;99115.31;4981685;28;20032;-68
2022/04/27 11:06:05;;;;;;;3.97;2.67;;;;;;;17.36;32.68;99121.16;5018004;28;20052;-66
2022/04/27 11:08:36;;;;;;;3.63;2.65;;;;;;;16.86;34.49;99128.38;5023269;28;20036;-67
2022/04/27 11:11:09;;;;;;;5.43;3.28;;;;;;;15.73;40.33;99145.44;5002643;28;20064;-67
2022/04/27 11:13:36;;;;;;;7.97;3.03;;;;;;;14.44;45.74;99155.50;5022412;28;20045;-69
2022/04/27 11:16:08;;;;;;;8.77;2.88;;;;;;;13.86;50.44;99177.00;5022398;28;20111;-67
2022/04/27 11:18:51;;;;;;;3.63;2.90;;;;;;;12.98;50.89;99180.50;5014879;28;20455;-66
2022/04/27 11:21:20;;;;;;;4.38;2.75;;;;;;;11.90;55.11;99189.91;4996379;28;20497;-66
2022/04/27 11:23:46;;;;;;;4.25;3.00;;;;;;;11.25;58.18;99190.84;5018160;28;20044;-65
2022/04/27 11:26:10;;;;;;;5.22;2.75;;;;;;;11.18;58.11;99199.44;5017961;28;20052;-68
2022/04/27 11:28:40;;;;;;;5.90;3.58;;;;;;;11.06;59.60;99200.47;5017653;28;20037;-67
2022/04/27 11:31:06;;;;;;;4.07;2.83;;;;;;;11.01;58.79;99205.31;5018357;28;20056;-67
2022/04/27 11:33:31;;;;;;;5.10;3.13;;;;;;;10.88;59.99;99210.78;5017705;28;20041;-66
2022/04/27 11:35:56;;;;;;;3.00;2.67;;;;;;;10.89;59.85;99199.13;5017700;28;20131;-67
2022/04/27 11:38:32;;;;;;;6.13;3.08;;;;;;;10.78;61.34;99196.47;5017812;28;20175;-67
2022/04/27 11:40:56;;;;;;;5.30;3.70;;;;;;;10.98;60.57;99203.72;4999933;28;20048;-66
2022/04/27 11:43:27;;;;;;;7.55;3.50;;;;;;;11.09;60.44;99208.19;4983486;28;20040;-70
2022/04/27 11:45:52;;;;;;;6.75;3.47;;;;;;;11.22;60.09;99207.09;5020279;28;20053;-67
2022/04/27 11:48:18;;;;;;;5.78;3.55;;;;;;;11.35;60.36;99220.28;5020533;28;20056;-69
2022/04/27 11:50:43;;;;;;;6.15;3.97;;;;;;;11.45;60.14;99220.38;5024329;28;20063;-67
2022/04/27 11:53:11;;;;;;;11.75;4.20;;;;;;;11.58;58.95;99215.75;5021692;28;20044;-67
2022/04/27 11:55:36;;;;;;;9.40;4.82;;;;;;;11.76;58.68;99211.56;5006989;28;20087;-66
2022/04/27 11:58:03;;;;;;;3.28;2.92;;;;;;;11.86;57.40;99209.81;5026994;28;20040;-66
2022/04/27 12:00:30;;;;;;;6.38;3.60;;;;;;;11.99;56.46;99207.81;5028825;28;20044;-69
2022/04/27 12:03:06;;;;;;;5.25;3.47;;;;;;;12.12;55.35;99210.31;4989817;28;20047;-72
2022/04/27 12:05:36;;;;;;;6.05;3.83;;;;;;;12.00;54.19;99214.03;5007526;28;20049;-70